Albuquerque, NM (87110)

10:18 AM MDT on August 29, 2016 (GMT -0600)
Albuquerque | | Change Station

Elev 5210 ft 35.13 °N, 106.59 °W | Updated 77 days ago

Partly Cloudy
Partly Cloudy
77 °F
Feels Like 77 °F
N
6
Wind Variable Wind from North
Gusts mph

Today
High -- | Low -- °F
--% Chance of Precip.
Yesterday
High -- | Low -- °F
Precip. -- in
Pressure 30.08 in
Visibility 10.0 miles
Clouds Few 8000 ft
Few 14000 ft
Dew Point 45 °F
Humidity 32%
Rainfall in
Snow Depth Not available.
6:37 AM 7:36 PM
Waning Crescent, 8% visible
METAR KABQ 291552Z 29005KT 10SM FEW080 FEW140 22/08 A3030 RMK AO2 SLP184 TCU DSNT NE T02170078
Pressure 30.08 in
Visibility 10.0 miles
Clouds Few 8000 ft
Few 14000 ft
Dew Point 45 °F
Humidity 32%
Rainfall in
Snow Depth Not available.
6:37 AM 7:36 PM
Waning Crescent, 8% visible
METAR KABQ 291552Z 29005KT 10SM FEW080 FEW140 22/08 A3030 RMK AO2 SLP184 TCU DSNT NE T02170078

10-Day Weather Forecast

Almanac

Astronomy

Aug. 29, 2016 Rise Set
Actual Time
Civil Twilight
Nautical Twilight
Astronomical Twilight
Moon
Length of Visible Light
Length of Day
Tomorrow will be .
, % of the Moon is Illuminated

Today's Extremes

State Highs State Lows

Community

WunderPhotos

Upload Photos

1,935,871 photos uploaded!

WunderBlog® & News

Nearby

Air Quality

  Air Quality AQ Index Pollutant
Not available.

Snow Depth

Station Depth Elevation

Earthquake Activity

City Distance Mag. Time & Date
Minimum magnitude displayed is 2.5.

Coastal Water Temperatures

Place Temperature

Stations

Nearby Weather Stations

Station Location Temp. Windchill Dew Point Humidity Wind Precip. Elev Updated Type
                   

Watches & Warnings

There are currently no watches in effect.